sensor_id;sensor_type;location;lat;lon;timestamp;temperature;humidity
20319;DHT22;10317;47.254;11.314;2023-09-18T00:01:40;17.50;99.90
20319;DHT22;10317;47.254;11.314;2023-09-18T00:04:06;17.50;99.90
20319;DHT22;10317;47.254;11.314;2023-09-18T00:06:32;17.50;99.90
20319;DHT22;10317;47.254;11.314;2023-09-18T00:08:58;17.60;99.90
20319;DHT22;10317;47.254;11.314;2023-09-18T00:11:24;17.50;99.90
20319;DHT22;10317;47.254;11.314;2023-09-18T00:13:50;17.50;99.90
20319;DHT22;10317;47.254;11.314;2023-09-18T00:16:16;17.40;99.90
20319;DHT22;10317;47.254;11.314;2023-09-18T00:18:42;17.40;99.90
20319;DHT22;10317;47.254;11.314;2023-09-18T00:21:10;17.40;99.90
20319;DHT22;10317;47.254;11.314;2023-09-18T00:23:37;17.30;99.90
20319;DHT22;10317;47.254;11.314;2023-09-18T00:26:03;17.30;99.90
20319;DHT22;10317;47.254;11.314;2023-09-18T00:28:29;17.30;99.90
20319;DHT22;10317;47.254;11.314;2023-09-18T00:30:54;17.20;99.90
20319;DHT22;10317;47.254;11.314;2023-09-18T00:33:20;17.20;99.90
20319;DHT22;10317;47.254;11.314;2023-09-18T00:35:50;17.20;99.90
20319;DHT22;10317;47.254;11.314;2023-09-18T00:38:17;17.20;99.90
20319;DHT22;10317;47.254;11.314;2023-09-18T00:40:43;17.20;99.90
20319;DHT22;10317;47.254;11.314;2023-09-18T00:43:08;17.20;99.90
20319;DHT22;10317;47.254;11.314;2023-09-18T00:45:39;17.20;99.90
20319;DHT22;10317;47.254;11.314;2023-09-18T00:48:06;17.20;99.90
20319;DHT22;10317;47.254;11.314;2023-09-18T00:50:32;17.20;99.90
20319;DHT22;10317;47.254;11.314;2023-09-18T00:52:59;17.20;99.90
20319;DHT22;10317;47.254;11.314;2023-09-18T00:55:27;17.10;99.90
20319;DHT22;10317;47.254;11.314;2023-09-18T00:57:55;17.10;99.90
20319;DHT22;10317;47.254;11.314;2023-09-18T01:00:21;17.10;99.90
20319;DHT22;10317;47.254;11.314;2023-09-18T01:02:47;17.00;99.90
20319;DHT22;10317;47.254;11.314;2023-09-18T01:05:13;17.00;99.90
20319;DHT22;10317;47.254;11.314;2023-09-18T01:07:42;17.00;99.90
20319;DHT22;10317;47.254;11.314;2023-09-18T01:10:08;17.00;99.90
20319;DHT22;10317;47.254;11.314;2023-09-18T01:12:47;17.00;99.90
20319;DHT22;10317;47.254;11.314;2023-09-18T01:15:26;17.00;99.90
20319;DHT22;10317;47.254;11.314;2023-09-18T01:17:52;17.00;99.90
20319;DHT22;10317;47.254;11.314;2023-09-18T01:20:18;17.00;99.90
20319;DHT22;10317;47.254;11.314;2023-09-18T01:22:44;17.00;99.90
20319;DHT22;10317;47.254;11.314;2023-09-18T01:25:10;17.00;99.90
20319;DHT22;10317;47.254;11.314;2023-09-18T01:27:35;17.00;99.90
20319;DHT22;10317;47.254;11.314;2023-09-18T01:30:01;17.00;99.90
20319;DHT22;10317;47.254;11.314;2023-09-18T01:32:29;17.00;99.90
20319;DHT22;10317;47.254;11.314;2023-09-18T01:34:57;17.00;99.90
20319;DHT22;10317;47.254;11.314;2023-09-18T01:37:30;17.00;99.90
20319;DHT22;10317;47.254;11.314;2023-09-18T01:39:56;17.00;99.90
20319;DHT22;10317;47.254;11.314;2023-09-18T01:42:26;17.00;99.90
20319;DHT22;10317;47.254;11.314;2023-09-18T01:44:53;17.00;99.90
20319;DHT22;10317;47.254;11.314;2023-09-18T01:47:20;17.00;99.90
20319;DHT22;10317;47.254;11.314;2023-09-18T01:49:47;16.90;99.90
20319;DHT22;10317;47.254;11.314;2023-09-18T01:52:12;17.00;99.90
20319;DHT22;10317;47.254;11.314;2023-09-18T01:54:38;16.90;99.90
20319;DHT22;10317;47.254;11.314;2023-09-18T01:57:04;16.90;99.90
20319;DHT22;10317;47.254;11.314;2023-09-18T01:59:33;16.90;99.90
20319;DHT22;10317;47.254;11.314;2023-09-18T02:01:59;16.90;99.90
20319;DHT22;10317;47.254;11.314;2023-09-18T02:04:24;16.90;99.90
20319;DHT22;10317;47.254;11.314;2023-09-18T02:06:51;16.90;99.90
20319;DHT22;10317;47.254;11.314;2023-09-18T02:09:17;16.80;99.90
20319;DHT22;10317;47.254;11.314;2023-09-18T02:11:47;16.80;99.90
20319;DHT22;10317;47.254;11.314;2023-09-18T02:14:15;16.90;99.90
20319;DHT22;10317;47.254;11.314;2023-09-18T02:16:42;16.90;99.90
20319;DHT22;10317;47.254;11.314;2023-09-18T02:19:12;17.00;99.90
20319;DHT22;10317;47.254;11.314;2023-09-18T02:21:45;16.90;99.90
20319;DHT22;10317;47.254;11.314;2023-09-18T02:24:11;16.90;99.90
20319;DHT22;10317;47.254;11.314;2023-09-18T02:26:37;16.90;99.90
20319;DHT22;10317;47.254;11.314;2023-09-18T02:29:09;16.90;99.90
20319;DHT22;10317;47.254;11.314;2023-09-18T02:31:39;16.90;99.90
20319;DHT22;10317;47.254;11.314;2023-09-18T02:34:05;16.90;99.90
20319;DHT22;10317;47.254;11.314;2023-09-18T02:36:32;16.90;99.90
20319;DHT22;10317;47.254;11.314;2023-09-18T02:38:58;16.90;99.90
20319;DHT22;10317;47.254;11.314;2023-09-18T02:41:24;16.90;99.90
20319;DHT22;10317;47.254;11.314;2023-09-18T02:43:49;16.80;99.90
20319;DHT22;10317;47.254;11.314;2023-09-18T02:46:15;16.90;99.90
20319;DHT22;10317;47.254;11.314;2023-09-18T02:48:41;16.90;99.90
20319;DHT22;10317;47.254;11.314;2023-09-18T02:51:06;16.80;99.90
20319;DHT22;10317;47.254;11.314;2023-09-18T02:53:32;16.80;99.90
20319;DHT22;10317;47.254;11.314;2023-09-18T02:55:59;16.80;99.90
20319;DHT22;10317;47.254;11.314;2023-09-18T02:58:25;16.80;99.90
20319;DHT22;10317;47.254;11.314;2023-09-18T03:00:52;16.80;99.90
20319;DHT22;10317;47.254;11.314;2023-09-18T03:03:22;16.80;99.90
20319;DHT22;10317;47.254;11.314;2023-09-18T03:05:48;16.80;99.90
20319;DHT22;10317;47.254;11.314;2023-09-18T03:08:15;16.80;99.90
20319;DHT22;10317;47.254;11.314;2023-09-18T03:10:42;16.80;99.90
20319;DHT22;10317;47.254;11.314;2023-09-18T03:13:09;16.70;99.90
20319;DHT22;10317;47.254;11.314;2023-09-18T03:15:35;16.70;99.90
20319;DHT22;10317;47.254;11.314;2023-09-18T03:18:02;16.70;99.90
20319;DHT22;10317;47.254;11.314;2023-09-18T03:20:28;16.70;99.90
20319;DHT22;10317;47.254;11.314;2023-09-18T03:22:58;16.70;99.90
20319;DHT22;10317;47.254;11.314;2023-09-18T03:25:24;16.70;99.90
20319;DHT22;10317;47.254;11.314;2023-09-18T03:27:51;16.70;99.90
20319;DHT22;10317;47.254;11.314;2023-09-18T03:30:18;16.70;99.90
20319;DHT22;10317;47.254;11.314;2023-09-18T03:32:44;16.70;99.90
20319;DHT22;10317;47.254;11.314;2023-09-18T03:35:10;16.70;99.90
20319;DHT22;10317;47.254;11.314;2023-09-18T03:37:43;16.70;99.90
20319;DHT22;10317;47.254;11.314;2023-09-18T03:40:09;16.70;99.90
20319;DHT22;10317;47.254;11.314;2023-09-18T03:42:35;16.80;99.90
20319;DHT22;10317;47.254;11.314;2023-09-18T03:45:01;16.80;99.90
20319;DHT22;10317;47.254;11.314;2023-09-18T03:47:27;16.80;99.90
20319;DHT22;10317;47.254;11.314;2023-09-18T03:49:52;16.80;99.90
20319;DHT22;10317;47.254;11.314;2023-09-18T03:52:18;16.80;99.90
20319;DHT22;10317;47.254;11.314;2023-09-18T03:54:43;16.80;99.90
20319;DHT22;10317;47.254;11.314;2023-09-18T03:57:09;16.80;99.90
20319;DHT22;10317;47.254;11.314;2023-09-18T03:59:35;16.80;99.90
20319;DHT22;10317;47.254;11.314;2023-09-18T04:02:00;16.80;99.90
20319;DHT22;10317;47.254;11.314;2023-09-18T04:04:26;16.70;99.90
20319;DHT22;10317;47.254;11.314;2023-09-18T04:06:54;16.70;99.90
20319;DHT22;10317;47.254;11.314;2023-09-18T04:09:19;16.70;99.90
20319;DHT22;10317;47.254;11.314;2023-09-18T04:11:45;16.70;99.90
20319;DHT22;10317;47.254;11.314;2023-09-18T04:14:11;16.70;99.90
20319;DHT22;10317;47.254;11.314;2023-09-18T04:16:36;16.70;99.90
20319;DHT22;10317;47.254;11.314;2023-09-18T04:19:03;16.70;99.90
20319;DHT22;10317;47.254;11.314;2023-09-18T04:21:29;16.60;99.90
20319;DHT22;10317;47.254;11.314;2023-09-18T04:23:55;16.60;99.90
20319;DHT22;10317;47.254;11.314;2023-09-18T04:26:26;16.50;99.90
20319;DHT22;10317;47.254;11.314;2023-09-18T04:29:00;16.60;99.90
20319;DHT22;10317;47.254;11.314;2023-09-18T04:31:26;16.60;99.90
20319;DHT22;10317;47.254;11.314;2023-09-18T04:33:53;16.60;99.90
20319;DHT22;10317;47.254;11.314;2023-09-18T04:36:19;16.70;99.90
20319;DHT22;10317;47.254;11.314;2023-09-18T04:38:44;16.70;99.90
20319;DHT22;10317;47.254;11.314;2023-09-18T04:41:10;16.80;99.90
20319;DHT22;10317;47.254;11.314;2023-09-18T04:43:37;16.80;99.90
20319;DHT22;10317;47.254;11.314;2023-09-18T04:46:04;16.90;99.90
20319;DHT22;10317;47.254;11.314;2023-09-18T04:48:30;16.80;99.90
20319;DHT22;10317;47.254;11.314;2023-09-18T04:50:57;16.80;99.90
20319;DHT22;10317;47.254;11.314;2023-09-18T04:53:23;16.80;99.90
20319;DHT22;10317;47.254;11.314;2023-09-18T04:55:48;16.80;99.90
20319;DHT22;10317;47.254;11.314;2023-09-18T04:58:16;16.80;99.90
20319;DHT22;10317;47.254;11.314;2023-09-18T05:00:42;16.80;99.90
20319;DHT22;10317;47.254;11.314;2023-09-18T05:03:08;16.80;99.90
20319;DHT22;10317;47.254;11.314;2023-09-18T05:05:35;16.90;99.90
20319;DHT22;10317;47.254;11.314;2023-09-18T05:08:02;16.90;99.90
20319;DHT22;10317;47.254;11.314;2023-09-18T05:10:28;16.90;99.90
20319;DHT22;10317;47.254;11.314;2023-09-18T05:12:55;16.90;99.90
20319;DHT22;10317;47.254;11.314;2023-09-18T05:15:24;16.90;99.90
20319;DHT22;10317;47.254;11.314;2023-09-18T05:17:52;16.90;99.90
20319;DHT22;10317;47.254;11.314;2023-09-18T05:20:21;17.00;99.90
20319;DHT22;10317;47.254;11.314;2023-09-18T05:22:50;17.00;99.90
20319;DHT22;10317;47.254;11.314;2023-09-18T05:25:15;17.00;99.90
20319;DHT22;10317;47.254;11.314;2023-09-18T05:27:41;17.00;99.90
20319;DHT22;10317;47.254;11.314;2023-09-18T05:32:37;17.00;99.90
20319;DHT22;10317;47.254;11.314;2023-09-18T05:35:03;17.00;99.90
20319;DHT22;10317;47.254;11.314;2023-09-18T05:37:34;17.00;99.90
20319;DHT22;10317;47.254;11.314;2023-09-18T05:40:00;17.00;99.90
20319;DHT22;10317;47.254;11.314;2023-09-18T05:42:26;17.00;99.90
20319;DHT22;10317;47.254;11.314;2023-09-18T05:44:51;17.10;99.90
20319;DHT22;10317;47.254;11.314;2023-09-18T05:47:17;17.20;99.90
20319;DHT22;10317;47.254;11.314;2023-09-18T05:49:42;17.20;99.90
20319;DHT22;10317;47.254;11.314;2023-09-18T05:52:08;17.20;99.90
20319;DHT22;10317;47.254;11.314;2023-09-18T05:54:34;17.20;99.90
20319;DHT22;10317;47.254;11.314;2023-09-18T05:57:00;17.10;99.90
20319;DHT22;10317;47.254;11.314;2023-09-18T05:59:27;17.20;99.90
20319;DHT22;10317;47.254;11.314;2023-09-18T06:01:52;17.20;99.90
20319;DHT22;10317;47.254;11.314;2023-09-18T06:04:19;17.20;99.90
20319;DHT22;10317;47.254;11.314;2023-09-18T06:06:45;17.20;99.90
20319;DHT22;10317;47.254;11.314;2023-09-18T06:09:11;17.20;99.90
20319;DHT22;10317;47.254;11.314;2023-09-18T06:11:38;17.20;99.90
20319;DHT22;10317;47.254;11.314;2023-09-18T06:14:03;17.20;99.90
20319;DHT22;10317;47.254;11.314;2023-09-18T06:16:30;17.20;99.90
20319;DHT22;10317;47.254;11.314;2023-09-18T06:18:56;17.20;99.90
20319;DHT22;10317;47.254;11.314;2023-09-18T06:21:21;17.30;99.90
20319;DHT22;10317;47.254;11.314;2023-09-18T06:23:47;17.30;99.90
20319;DHT22;10317;47.254;11.314;2023-09-18T06:26:12;17.30;99.90
20319;DHT22;10317;47.254;11.314;2023-09-18T06:28:39;17.40;99.90
20319;DHT22;10317;47.254;11.314;2023-09-18T06:31:04;17.50;99.90
20319;DHT22;10317;47.254;11.314;2023-09-18T06:33:30;17.50;99.90
20319;DHT22;10317;47.254;11.314;2023-09-18T06:35:56;17.60;99.90
20319;DHT22;10317;47.254;11.314;2023-09-18T06:38:21;17.60;99.90
20319;DHT22;10317;47.254;11.314;2023-09-18T06:40:47;17.60;99.90
20319;DHT22;10317;47.254;11.314;2023-09-18T06:43:13;17.60;99.90
20319;DHT22;10317;47.254;11.314;2023-09-18T06:45:39;17.60;99.90
20319;DHT22;10317;47.254;11.314;2023-09-18T06:48:05;17.60;99.90
20319;DHT22;10317;47.254;11.314;2023-09-18T06:50:30;17.70;99.90
20319;DHT22;10317;47.254;11.314;2023-09-18T06:52:56;17.70;99.90
20319;DHT22;10317;47.254;11.314;2023-09-18T06:55:21;17.80;99.90
20319;DHT22;10317;47.254;11.314;2023-09-18T06:57:47;17.80;99.90
20319;DHT22;10317;47.254;11.314;2023-09-18T07:00:14;17.80;99.90
20319;DHT22;10317;47.254;11.314;2023-09-18T07:02:40;17.80;99.90
20319;DHT22;10317;47.254;11.314;2023-09-18T07:05:06;17.80;99.90
20319;DHT22;10317;47.254;11.314;2023-09-18T07:07:32;17.90;99.90
20319;DHT22;10317;47.254;11.314;2023-09-18T07:09:58;17.90;99.90
20319;DHT22;10317;47.254;11.314;2023-09-18T07:12:23;18.00;99.90
20319;DHT22;10317;47.254;11.314;2023-09-18T07:14:49;18.10;99.90
20319;DHT22;10317;47.254;11.314;2023-09-18T07:17:15;18.20;99.90
20319;DHT22;10317;47.254;11.314;2023-09-18T07:19:40;18.30;99.90
20319;DHT22;10317;47.254;11.314;2023-09-18T07:22:06;18.30;99.90
20319;DHT22;10317;47.254;11.314;2023-09-18T07:24:32;18.40;99.90
20319;DHT22;10317;47.254;11.314;2023-09-18T07:26:57;18.60;99.90
20319;DHT22;10317;47.254;11.314;2023-09-18T07:29:23;18.80;99.90
20319;DHT22;10317;47.254;11.314;2023-09-18T07:31:50;19.10;99.90
20319;DHT22;10317;47.254;11.314;2023-09-18T07:34:16;19.30;99.90
20319;DHT22;10317;47.254;11.314;2023-09-18T07:36:43;19.50;99.90
20319;DHT22;10317;47.254;11.314;2023-09-18T07:39:10;19.70;99.90
20319;DHT22;10317;47.254;11.314;2023-09-18T07:41:37;19.90;99.90
20319;DHT22;10317;47.254;11.314;2023-09-18T07:44:03;20.10;99.90
20319;DHT22;10317;47.254;11.314;2023-09-18T07:46:29;20.40;99.90
20319;DHT22;10317;47.254;11.314;2023-09-18T07:48:55;20.70;99.90
20319;DHT22;10317;47.254;11.314;2023-09-18T07:51:20;21.00;99.90
20319;DHT22;10317;47.254;11.314;2023-09-18T07:53:46;21.40;99.90
20319;DHT22;10317;47.254;11.314;2023-09-18T07:56:12;21.70;99.20
20319;DHT22;10317;47.254;11.314;2023-09-18T07:58:38;22.00;98.40
20319;DHT22;10317;47.254;11.314;2023-09-18T08:01:07;22.30;98.20
20319;DHT22;10317;47.254;11.314;2023-09-18T08:03:34;22.60;96.30
20319;DHT22;10317;47.254;11.314;2023-09-18T08:06:00;22.70;96.40
20319;DHT22;10317;47.254;11.314;2023-09-18T08:08:26;22.70;95.00
20319;DHT22;10317;47.254;11.314;2023-09-18T08:10:53;22.70;95.60
20319;DHT22;10317;47.254;11.314;2023-09-18T08:13:18;22.80;95.60
20319;DHT22;10317;47.254;11.314;2023-09-18T08:15:45;22.90;95.20
20319;DHT22;10317;47.254;11.314;2023-09-18T08:18:11;23.00;94.50
20319;DHT22;10317;47.254;11.314;2023-09-18T08:20:44;22.90;94.70
20319;DHT22;10317;47.254;11.314;2023-09-18T08:23:11;22.70;94.20
20319;DHT22;10317;47.254;11.314;2023-09-18T08:25:38;22.50;94.20
20319;DHT22;10317;47.254;11.314;2023-09-18T08:28:05;22.40;94.30
20319;DHT22;10317;47.254;11.314;2023-09-18T08:30:32;22.10;94.50
20319;DHT22;10317;47.254;11.314;2023-09-18T08:32:57;22.00;94.20
20319;DHT22;10317;47.254;11.314;2023-09-18T08:35:23;21.80;94.50
20319;DHT22;10317;47.254;11.314;2023-09-18T08:37:53;21.70;95.10
20319;DHT22;10317;47.254;11.314;2023-09-18T08:40:19;21.60;95.20
20319;DHT22;10317;47.254;11.314;2023-09-18T08:42:46;21.60;96.10
20319;DHT22;10317;47.254;11.314;2023-09-18T08:46:03;21.50;96.00
20319;DHT22;10317;47.254;11.314;2023-09-18T08:48:05;21.50;95.60
20319;DHT22;10317;47.254;11.314;2023-09-18T08:50:31;21.50;95.40
20319;DHT22;10317;47.254;11.314;2023-09-18T08:52:59;21.50;95.60
20319;DHT22;10317;47.254;11.314;2023-09-18T08:55:25;21.40;95.90
20319;DHT22;10317;47.254;11.314;2023-09-18T08:57:52;21.40;96.00
20319;DHT22;10317;47.254;11.314;2023-09-18T09:00:19;21.40;96.00
20319;DHT22;10317;47.254;11.314;2023-09-18T09:02:45;21.50;96.10
20319;DHT22;10317;47.254;11.314;2023-09-18T09:05:14;21.50;95.80
20319;DHT22;10317;47.254;11.314;2023-09-18T09:07:40;21.40;96.00
20319;DHT22;10317;47.254;11.314;2023-09-18T09:10:06;21.40;96.40
20319;DHT22;10317;47.254;11.314;2023-09-18T09:15:16;21.30;96.60
20319;DHT22;10317;47.254;11.314;2023-09-18T09:17:42;21.20;96.80
20319;DHT22;10317;47.254;11.314;2023-09-18T09:20:13;21.20;96.90
20319;DHT22;10317;47.254;11.314;2023-09-18T09:22:40;21.10;97.20
20319;DHT22;10317;47.254;11.314;2023-09-18T09:25:30;21.10;97.50
20319;DHT22;10317;47.254;11.314;2023-09-18T09:28:06;21.00;97.60
20319;DHT22;10317;47.254;11.314;2023-09-18T09:30:33;21.00;97.80
20319;DHT22;10317;47.254;11.314;2023-09-18T09:32:59;20.90;98.40
20319;DHT22;10317;47.254;11.314;2023-09-18T09:35:29;20.90;98.90
20319;DHT22;10317;47.254;11.314;2023-09-18T09:37:59;20.90;99.10
20319;DHT22;10317;47.254;11.314;2023-09-18T09:40:27;20.90;99.00
20319;DHT22;10317;47.254;11.314;2023-09-18T09:42:56;20.80;99.00
20319;DHT22;10317;47.254;11.314;2023-09-18T09:45:31;20.80;99.20
20319;DHT22;10317;47.254;11.314;2023-09-18T09:48:02;20.80;99.10
20319;DHT22;10317;47.254;11.314;2023-09-18T09:50:27;20.80;99.30
20319;DHT22;10317;47.254;11.314;2023-09-18T09:52:54;20.70;99.70
20319;DHT22;10317;47.254;11.314;2023-09-18T09:55:21;20.70;99.80
20319;DHT22;10317;47.254;11.314;2023-09-18T09:57:48;20.70;99.90
20319;DHT22;10317;47.254;11.314;2023-09-18T10:00:15;20.80;99.90
20319;DHT22;10317;47.254;11.314;2023-09-18T10:02:58;20.90;99.90
20319;DHT22;10317;47.254;11.314;2023-09-18T10:05:28;21.00;99.70
20319;DHT22;10317;47.254;11.314;2023-09-18T10:07:57;21.00;99.90
20319;DHT22;10317;47.254;11.314;2023-09-18T10:10:30;21.10;99.90
20319;DHT22;10317;47.254;11.314;2023-09-18T10:13:03;21.30;99.90
20319;DHT22;10317;47.254;11.314;2023-09-18T10:15:33;21.60;99.90
20319;DHT22;10317;47.254;11.314;2023-09-18T10:18:09;22.00;99.80
20319;DHT22;10317;47.254;11.314;2023-09-18T10:20:39;22.50;98.80
20319;DHT22;10317;47.254;11.314;2023-09-18T10:23:15;23.00;97.40
20319;DHT22;10317;47.254;11.314;2023-09-18T10:25:52;23.10;97.30
20319;DHT22;10317;47.254;11.314;2023-09-18T10:28:21;23.40;97.20
20319;DHT22;10317;47.254;11.314;2023-09-18T10:30:49;24.20;96.10
20319;DHT22;10317;47.254;11.314;2023-09-18T10:33:16;24.70;95.20
20319;DHT22;10317;47.254;11.314;2023-09-18T10:35:43;25.60;94.20
20319;DHT22;10317;47.254;11.314;2023-09-18T10:38:09;26.40;93.20
20319;DHT22;10317;47.254;11.314;2023-09-18T10:40:36;26.50;91.90
20319;DHT22;10317;47.254;11.314;2023-09-18T10:43:02;26.20;91.50
20319;DHT22;10317;47.254;11.314;2023-09-18T10:45:30;26.00;91.50
20319;DHT22;10317;47.254;11.314;2023-09-18T10:47:56;25.90;91.00
20319;DHT22;10317;47.254;11.314;2023-09-18T10:50:26;26.30;90.00
20319;DHT22;10317;47.254;11.314;2023-09-18T10:52:52;26.90;90.60
20319;DHT22;10317;47.254;11.314;2023-09-18T10:55:18;27.50;89.00
20319;DHT22;10317;47.254;11.314;2023-09-18T10:57:54;28.30;88.90
20319;DHT22;10317;47.254;11.314;2023-09-18T11:00:23;29.40;84.60
20319;DHT22;10317;47.254;11.314;2023-09-18T11:02:54;29.80;81.90
20319;DHT22;10317;47.254;11.314;2023-09-18T11:05:34;29.90;78.70
20319;DHT22;10317;47.254;11.314;2023-09-18T11:08:25;29.30;77.50
20319;DHT22;10317;47.254;11.314;2023-09-18T11:11:10;28.40;79.70
20319;DHT22;10317;47.254;11.314;2023-09-18T11:13:50;27.50;79.50
20319;DHT22;10317;47.254;11.314;2023-09-18T11:16:34;26.70;80.40
20319;DHT22;10317;47.254;11.314;2023-09-18T11:19:09;25.90;81.50
20319;DHT22;10317;47.254;11.314;2023-09-18T11:21:36;25.30;83.10
20319;DHT22;10317;47.254;11.314;2023-09-18T11:26:34;24.50;84.80
20319;DHT22;10317;47.254;11.314;2023-09-18T11:29:10;24.20;87.90
20319;DHT22;10317;47.254;11.314;2023-09-18T11:31:53;23.90;87.90
20319;DHT22;10317;47.254;11.314;2023-09-18T11:34:24;23.60;89.10
20319;DHT22;10317;47.254;11.314;2023-09-18T11:37:22;23.40;90.40
20319;DHT22;10317;47.254;11.314;2023-09-18T11:39:50;23.30;90.80
20319;DHT22;10317;47.254;11.314;2023-09-18T11:42:18;23.10;91.30
20319;DHT22;10317;47.254;11.314;2023-09-18T11:44:45;23.00;91.20
20319;DHT22;10317;47.254;11.314;2023-09-18T11:47:23;22.90;91.30
20319;DHT22;10317;47.254;11.314;2023-09-18T11:49:57;22.80;91.30
20319;DHT22;10317;47.254;11.314;2023-09-18T11:52:30;22.70;91.40
20319;DHT22;10317;47.254;11.314;2023-09-18T11:54:58;22.60;92.10
20319;DHT22;10317;47.254;11.314;2023-09-18T11:57:24;22.50;91.80
20319;DHT22;10317;47.254;11.314;2023-09-18T11:59:50;22.40;91.80
20319;DHT22;10317;47.254;11.314;2023-09-18T12:02:27;22.40;91.80
20319;DHT22;10317;47.254;11.314;2023-09-18T12:05:14;22.40;92.10
20319;DHT22;10317;47.254;11.314;2023-09-18T12:07:41;22.30;92.70
20319;DHT22;10317;47.254;11.314;2023-09-18T12:10:20;22.40;93.30
20319;DHT22;10317;47.254;11.314;2023-09-18T12:12:46;22.30;93.40
20319;DHT22;10317;47.254;11.314;2023-09-18T12:15:17;22.30;93.50
20319;DHT22;10317;47.254;11.314;2023-09-18T12:17:44;22.30;93.70
20319;DHT22;10317;47.254;11.314;2023-09-18T12:20:17;22.20;93.90
20319;DHT22;10317;47.254;11.314;2023-09-18T12:22:50;22.20;94.40
20319;DHT22;10317;47.254;11.314;2023-09-18T12:25:16;22.20;94.50
20319;DHT22;10317;47.254;11.314;2023-09-18T12:27:45;22.20;94.40
20319;DHT22;10317;47.254;11.314;2023-09-18T12:30:11;22.20;94.20
20319;DHT22;10317;47.254;11.314;2023-09-18T12:32:38;22.20;94.50
20319;DHT22;10317;47.254;11.314;2023-09-18T12:35:06;22.30;94.90
20319;DHT22;10317;47.254;11.314;2023-09-18T12:37:34;22.40;94.60
20319;DHT22;10317;47.254;11.314;2023-09-18T12:40:00;22.60;94.60
20319;DHT22;10317;47.254;11.314;2023-09-18T12:42:26;22.80;94.40
20319;DHT22;10317;47.254;11.314;2023-09-18T12:44:52;23.00;94.20
20319;DHT22;10317;47.254;11.314;2023-09-18T12:47:20;23.00;93.10
20319;DHT22;10317;47.254;11.314;2023-09-18T12:49:45;22.90;93.30
20319;DHT22;10317;47.254;11.314;2023-09-18T12:52:12;22.70;93.70
20319;DHT22;10317;47.254;11.314;2023-09-18T12:54:44;22.60;93.40
20319;DHT22;10317;47.254;11.314;2023-09-18T12:57:19;22.40;93.60
20319;DHT22;10317;47.254;11.314;2023-09-18T12:59:45;22.30;93.70
20319;DHT22;10317;47.254;11.314;2023-09-18T13:02:16;22.20;93.50
20319;DHT22;10317;47.254;11.314;2023-09-18T13:04:54;22.10;93.90
20319;DHT22;10317;47.254;11.314;2023-09-18T13:07:20;22.00;93.60
20319;DHT22;10317;47.254;11.314;2023-09-18T13:10:05;21.90;93.70
20319;DHT22;10317;47.254;11.314;2023-09-18T13:12:52;21.80;94.00
20319;DHT22;10317;47.254;11.314;2023-09-18T13:17:53;21.40;93.70
20319;DHT22;10317;47.254;11.314;2023-09-18T13:20:24;21.30;94.40
20319;DHT22;10317;47.254;11.314;2023-09-18T13:22:52;21.20;93.80
20319;DHT22;10317;47.254;11.314;2023-09-18T13:25:30;21.10;94.50
20319;DHT22;10317;47.254;11.314;2023-09-18T13:27:56;20.90;94.30
20319;DHT22;10317;47.254;11.314;2023-09-18T13:30:22;20.80;93.50
20319;DHT22;10317;47.254;11.314;2023-09-18T13:32:49;20.60;94.40
20319;DHT22;10317;47.254;11.314;2023-09-18T13:35:16;20.50;94.60
20319;DHT22;10317;47.254;11.314;2023-09-18T13:37:42;20.50;94.70
20319;DHT22;10317;47.254;11.314;2023-09-18T13:40:09;20.40;95.00
20319;DHT22;10317;47.254;11.314;2023-09-18T13:42:36;20.30;95.50
20319;DHT22;10317;47.254;11.314;2023-09-18T13:45:03;20.20;95.70
20319;DHT22;10317;47.254;11.314;2023-09-18T13:47:30;20.10;95.70
20319;DHT22;10317;47.254;11.314;2023-09-18T13:49:56;19.90;96.30
20319;DHT22;10317;47.254;11.314;2023-09-18T13:52:23;19.70;96.80
20319;DHT22;10317;47.254;11.314;2023-09-18T13:54:50;19.40;97.00
20319;DHT22;10317;47.254;11.314;2023-09-18T13:57:20;19.30;97.30
20319;DHT22;10317;47.254;11.314;2023-09-18T13:59:47;19.20;97.60
20319;DHT22;10317;47.254;11.314;2023-09-18T14:02:14;19.00;98.40
20319;DHT22;10317;47.254;11.314;2023-09-18T14:04:41;18.90;99.10
20319;DHT22;10317;47.254;11.314;2023-09-18T14:07:07;18.60;99.90
20319;DHT22;10317;47.254;11.314;2023-09-18T14:09:34;18.30;99.90
20319;DHT22;10317;47.254;11.314;2023-09-18T14:12:03;18.10;99.90
20319;DHT22;10317;47.254;11.314;2023-09-18T14:14:33;17.90;99.90
20319;DHT22;10317;47.254;11.314;2023-09-18T14:16:58;17.80;99.90
20319;DHT22;10317;47.254;11.314;2023-09-18T14:19:24;17.70;99.90
20319;DHT22;10317;47.254;11.314;2023-09-18T14:21:51;17.60;99.90
20319;DHT22;10317;47.254;11.314;2023-09-18T14:24:17;17.60;99.90
20319;DHT22;10317;47.254;11.314;2023-09-18T14:26:47;17.50;99.90
20319;DHT22;10317;47.254;11.314;2023-09-18T14:29:13;17.40;99.90
20319;DHT22;10317;47.254;11.314;2023-09-18T14:31:39;17.30;99.90
20319;DHT22;10317;47.254;11.314;2023-09-18T14:34:05;17.30;99.90
20319;DHT22;10317;47.254;11.314;2023-09-18T14:36:32;17.30;99.90
20319;DHT22;10317;47.254;11.314;2023-09-18T14:39:02;17.30;99.90
20319;DHT22;10317;47.254;11.314;2023-09-18T14:41:28;17.30;99.90
20319;DHT22;10317;47.254;11.314;2023-09-18T14:43:54;17.30;99.90
20319;DHT22;10317;47.254;11.314;2023-09-18T14:46:22;17.30;99.90
20319;DHT22;10317;47.254;11.314;2023-09-18T14:48:48;17.20;99.90
20319;DHT22;10317;47.254;11.314;2023-09-18T14:51:14;17.20;99.90
20319;DHT22;10317;47.254;11.314;2023-09-18T14:53:39;17.20;99.90
20319;DHT22;10317;47.254;11.314;2023-09-18T14:56:05;17.20;99.90
20319;DHT22;10317;47.254;11.314;2023-09-18T14:58:30;17.10;99.90
20319;DHT22;10317;47.254;11.314;2023-09-18T15:00:57;17.10;99.90
20319;DHT22;10317;47.254;11.314;2023-09-18T15:03:23;17.10;99.90
20319;DHT22;10317;47.254;11.314;2023-09-18T15:05:52;17.10;99.90
20319;DHT22;10317;47.254;11.314;2023-09-18T15:08:19;17.10;99.90
20319;DHT22;10317;47.254;11.314;2023-09-18T15:10:45;17.00;99.90
20319;DHT22;10317;47.254;11.314;2023-09-18T15:13:11;17.00;99.90
20319;DHT22;10317;47.254;11.314;2023-09-18T15:15:39;17.00;99.90
20319;DHT22;10317;47.254;11.314;2023-09-18T15:18:05;17.10;99.90
20319;DHT22;10317;47.254;11.314;2023-09-18T15:20:31;17.10;99.90
20319;DHT22;10317;47.254;11.314;2023-09-18T15:22:57;17.10;99.90
20319;DHT22;10317;47.254;11.314;2023-09-18T15:25:23;17.10;99.90
20319;DHT22;10317;47.254;11.314;2023-09-18T15:27:49;17.10;99.90
20319;DHT22;10317;47.254;11.314;2023-09-18T15:30:14;17.10;99.90